Latest Weather Observations for Spitfire Channel

IDQ60801

Issued at 8:22 pm EST Thursday 21 February 2019 (issued every 10 minutes, with the page automatically refreshed every 10 minutes)

About weather observations | Map of weather stations | Latest weather observations for QLD | Other Formats
Station Details ID: 040927 Name: SPITFIRE CHANNEL BEACON Lat: -27.05 Lon: 153.27 Height: 7.0 m
Data from the previous 72 hours. | See also: Recent months at Spitfire Channel
Date/Time
EST
Temp
°C
App
Temp
°C
Dew
Point
°C
Rel
Hum
%
Delta-T
°C
Wind Press
QNH
hPa
Press
MSL
hPa
Rain since
9am
mm
Dir  Spd
km/h
Gust
km/h
Spd
kts
Gust
kts
21/08:00pm - - - - - SE 44 52 24 28 - - -
21/07:30pm - - - - - SE 39 50 21 27 - - -
21/07:00pm - - - - - SE 43 56 23 30 - - -
21/06:30pm - - - - - SE 46 57 25 31 - - -
21/06:00pm - - - - - SE 46 59 25 32 - - -
21/05:30pm - - - - - SE 46 56 25 30 - - -
21/05:00pm - - - - - SE 46 57 25 31 - - -
21/04:30pm - - - - - SE 43 52 23 28 - - -
21/04:00pm - - - - - SE 41 50 22 27 - - -
21/03:30pm - - - - - SE 41 48 22 26 - - -
21/03:00pm - - - - - SE 39 48 21 26 - - -
21/02:30pm - - - - - SE 41 48 22 26 - - -
21/02:00pm - - - - - SE 35 43 19 23 - - -
21/01:30pm - - - - - SE 35 44 19 24 - - -
21/01:00pm - - - - - SE 37 50 20 27 - - -
21/12:59pm - - - - - SE 37 50 20 27 - - -
21/12:30pm - - - - - SSE 32 35 17 19 - - -
21/12:00pm - - - - - SSE 33 43 18 23 - - -
21/11:30am - - - - - SSE 32 39 17 21 - - -
21/11:00am - - - - - SSE 30 37 16 20 - - -
21/10:30am - - - - - SSE 33 43 18 23 - - -
21/10:00am - - - - - SE 30 39 16 21 - - -
21/09:30am - - - - - SE 30 37 16 20 - - -
21/09:00am - - - - - SSE 30 35 16 19 - - -
21/08:30am - - - - - SE 28 33 15 18 - - -
21/08:00am - - - - - SSE 28 33 15 18 - - -
21/07:30am - - - - - SSE 24 32 13 17 - - -
21/07:00am - - - - - SSE 22 28 12 15 - - -
21/06:30am - - - - - SE 22 26 12 14 - - -
21/06:00am - - - - - SE 20 24 11 13 - - -
21/05:30am - - - - - SE 22 26 12 14 - - -
21/05:00am - - - - - SE 20 24 11 13 - - -
21/04:30am - - - - - SE 17 19 9 10 - - -
21/04:00am - - - - - ESE 20 26 11 14 - - -
21/03:30am - - - - - SE 24 30 13 16 - - -
21/03:00am - - - - - SE 28 32 15 17 - - -
21/02:30am - - - - - SE 30 35 16 19 - - -
21/02:00am - - - - - SSE 32 37 17 20 - - -
21/01:30am - - - - - SSE 30 33 16 18 - - -
21/01:00am - - - - - SE 28 33 15 18 - - -
21/12:30am - - - - - SSE 30 35 16 19 - - -
21/12:00am - - - - - SE 28 33 15 18 - - -
 
Date/Time
EST
Temp
°C
App
Temp
°C
Dew
Point
°C
Rel
Hum
%
Delta-T
°C
Wind Press
QNH
hPa
Press
MSL
hPa
Rain since
9am
mm
Dir  Spd
km/h
Gust
km/h
Spd
kts
Gust
kts
20/11:30pm - - - - - SSE 24 30 13 16 - - -
20/11:00pm - - - - - SE 20 28 11 15 - - -
20/10:30pm - - - - - ESE 20 24 11 13 - - -
20/10:00pm - - - - - ESE 15 19 8 10 - - -
20/09:30pm - - - - - ESE 15 19 8 10 - - -
20/09:00pm - - - - - SE 13 20 7 11 - - -
20/08:30pm - - - - - ESE 15 20 8 11 - - -
20/08:00pm - - - - - ESE 15 20 8 11 - - -
20/07:30pm - - - - - ESE 15 19 8 10 - - -
20/07:00pm - - - - - ESE 13 15 7 8 - - -
20/06:30pm - - - - - ESE 15 19 8 10 - - -
20/06:00pm - - - - - ESE 15 19 8 10 - - -
20/05:30pm - - - - - ESE 19 20 10 11 - - -
20/05:00pm - - - - - ESE 20 24 11 13 - - -
20/04:30pm - - - - - ESE 20 26 11 14 - - -
20/04:00pm - - - - - ESE 20 24 11 13 - - -
20/03:30pm - - - - - ESE 20 24 11 13 - - -
20/03:00pm - - - - - ESE 22 24 12 13 - - -
20/02:30pm - - - - - ESE 20 26 11 14 - - -
20/02:00pm - - - - - SE 19 20 10 11 - - -
20/01:30pm - - - - - SSE 19 20 10 11 - - -
20/01:00pm - - - - - SSE 19 20 10 11 - - -
20/12:30pm - - - - - SSE 19 20 10 11 - - -
20/12:00pm - - - - - SE 17 20 9 11 - - -
20/11:30am - - - - - SSE 17 20 9 11 - - -
20/11:00am - - - - - SSE 19 22 10 12 - - -
20/10:30am - - - - - S 17 20 9 11 - - -
20/10:00am - - - - - S 17 20 9 11 - - -
20/09:30am - - - - - SSE 17 20 9 11 - - -
20/09:00am - - - - - SSE 17 20 9 11 - - -
20/08:30am - - - - - SSE 19 24 10 13 - - -
20/08:00am - - - - - SSE 20 24 11 13 - - -
20/07:30am - - - - - SE 19 22 10 12 - - -
20/07:00am - - - - - SE 19 22 10 12 - - -
20/06:30am - - - - - SE 17 20 9 11 - - -
20/06:00am - - - - - SE 17 19 9 10 - - -
20/05:30am - - - - - SE 13 17 7 9 - - -
20/05:00am - - - - - SE 13 17 7 9 - - -
20/04:30am - - - - - ESE 17 19 9 10 - - -
20/04:00am - - - - - ESE 11 13 6 7 - - -
20/03:30am - - - - - ESE 11 13 6 7 - - -
20/03:00am - - - - - E 11 13 6 7 - - -
20/02:30am - - - - - E 11 11 6 6 - - -
20/02:00am - - - - - E 9 11 5 6 - - -
20/01:30am - - - - - ESE 6 7 3 4 - - -
20/01:00am - - - - - E 6 9 3 5 - - -
20/12:30am - - - - - E 7 9 4 5 - - -
20/12:00am - - - - - E 9 9 5 5 - - -
 
Date/Time
EST
Temp
°C
App
Temp
°C
Dew
Point
°C
Rel
Hum
%
Delta-T
°C
Wind Press
QNH
hPa
Press
MSL
hPa
Rain since
9am
mm
Dir  Spd
km/h
Gust
km/h
Spd
kts
Gust
kts
19/11:30pm - - - - - ENE 9 11 5 6 - - -
19/11:00pm - - - - - ENE 9 11 5 6 - - -
19/10:30pm - - - - - ENE 9 11 5 6 - - -
19/10:00pm - - - - - NE 7 11 4 6 - - -
19/09:30pm - - - - - NE 11 15 6 8 - - -
19/09:00pm - - - - - NE 15 17 8 9 - - -
19/08:30pm - - - - - NE 13 15 7 8 - - -
19/08:00pm - - - - - NE 15 19 8 10 - - -
19/07:30pm - - - - - NE 15 19 8 10 - - -
19/07:00pm - - - - - NE 17 20 9 11 - - -
19/06:30pm - - - - - NE 19 20 10 11 - - -
19/06:00pm - - - - - NE 20 24 11 13 - - -
19/05:30pm - - - - - NE 24 28 13 15 - - -
19/05:00pm - - - - - NE 26 30 14 16 - - -
19/04:30pm - - - - - NE 28 32 15 17 - - -
19/04:00pm - - - - - NE 28 32 15 17 - - -
19/03:30pm - - - - - NE 26 30 14 16 - - -
19/03:00pm - - - - - NE 22 26 12 14 - - -
19/02:30pm - - - - - NE 13 17 7 9 - - -
19/02:00pm - - - - - ENE 11 13 6 7 - - -
19/01:30pm - - - - - E 7 7 4 4 - - -
19/01:00pm - - - - - ESE 7 9 4 5 - - -
19/12:30pm - - - - - SE 9 9 5 5 - - -
19/12:00pm - - - - - SSE 9 9 5 5 - - -
19/11:30am - - - - - S 9 11 5 6 - - -
19/11:00am - - - - - S 11 13 6 7 - - -
19/10:30am - - - - - SSW 13 15 7 8 - - -
19/10:00am - - - - - SSW 13 15 7 8 - - -
19/09:30am - - - - - SSW 13 17 7 9 - - -
19/09:00am - - - - - SSW 13 17 7 9 - - -
19/08:30am - - - - - S 15 17 8 9 - - -
19/08:00am - - - - - S 11 15 6 8 - - -
19/07:30am - - - - - SSE 11 13 6 7 - - -
19/07:00am - - - - - SSE 13 15 7 8 - - -
19/06:30am - - - - - S 15 19 8 10 - - -
19/06:00am - - - - - S 19 22 10 12 - - -
19/05:30am - - - - - S 17 22 9 12 - - -
19/05:00am - - - - - S 15 19 8 10 - - -
19/04:30am - - - - - S 7 11 4 6 - - -
19/04:00am - - - - - SSE 9 11 5 6 - - -
19/03:30am - - - - - SSE 9 11 5 6 - - -
19/03:00am - - - - - SSE 11 13 6 7 - - -
19/02:30am - - - - - SE 9 11 5 6 - - -
19/02:00am - - - - - SSE 7 9 4 5 - - -
19/01:30am - - - - - SE 7 9 4 5 - - -
19/01:00am - - - - - ESE 7 9 4 5 - - -
19/12:30am - - - - - ESE 7 9 4 5 - - -
19/12:00am - - - - - ESE 9 11 5 6 - - -
 
Date/Time
EST
Temp
°C
App
Temp
°C
Dew
Point
°C
Rel
Hum
%
Delta-T
°C
Wind Press
QNH
hPa
Press
MSL
hPa
Rain since
9am
mm
Dir  Spd
km/h
Gust
km/h
Spd
kts
Gust
kts
18/11:30pm - - - - - E 11 13 6 7 - - -
18/11:00pm - - - - - E 11 13 6 7 - - -
18/10:30pm - - - - - ESE 9 13 5 7 - - -
18/10:00pm - - - - - ESE 11 15 6 8 - - -
18/09:30pm - - - - - E 13 17 7 9 - - -
18/09:00pm - - - - - E 13 17 7 9 - - -
18/08:30pm - - - - - E 15 19 8 10 - - -

Other formats

Comma delimited format used in spreadsheet applications
http://www.bom.gov.au/fwo/IDQ60801/IDQ60801.94581.axf

JavaScript Object Notation format (JSON) in row-major order
http://www.bom.gov.au/fwo/IDQ60801/IDQ60801.94581.json

Data quality

Most of these data are generated automatically and are frequently updated. Quality checks on data are not normally performed. It is possible for incorrect values to appear. Refer to information at About Latest Weather Observations and please check the disclaimer before using these data.